createdAt,value
2022-12-27T00:00:53.072Z,6.20
2022-12-27T00:03:19.855Z,6.05
2022-12-27T00:05:47.891Z,5.68
2022-12-27T00:08:15.079Z,8.05
2022-12-27T00:10:41.639Z,4.72
2022-12-27T00:13:08.107Z,3.30
2022-12-27T00:15:35.326Z,9.07
2022-12-27T00:18:01.963Z,7.47
2022-12-27T00:20:28.447Z,2.80
2022-12-27T00:22:54.860Z,3.70
2022-12-27T00:25:21.279Z,4.25
2022-12-27T00:27:47.671Z,7.05
2022-12-27T00:30:14.136Z,2.47
2022-12-27T00:32:40.537Z,4.38
2022-12-27T00:35:07.230Z,2.42
2022-12-27T00:37:33.651Z,3.47
2022-12-27T00:40:00.122Z,2.88
2022-12-27T00:42:26.541Z,7.28
2022-12-27T00:44:52.948Z,8.30
2022-12-27T00:47:19.351Z,2.75
2022-12-27T00:49:45.809Z,3.20
2022-12-27T00:52:12.324Z,1.73
2022-12-27T00:54:38.800Z,2.72
2022-12-27T00:57:05.299Z,2.42
2022-12-27T00:59:31.783Z,3.17
2022-12-27T01:01:58.343Z,5.30
2022-12-27T01:04:24.829Z,4.45
2022-12-27T01:06:51.330Z,5.53
2022-12-27T01:09:17.728Z,4.43
2022-12-27T01:11:44.133Z,4.57
2022-12-27T01:14:13.212Z,9.93
2022-12-27T01:16:40.540Z,3.78
2022-12-27T01:19:07.075Z,5.85
2022-12-27T01:21:33.888Z,6.50
2022-12-27T01:24:00.418Z,7.25
2022-12-27T01:26:27.807Z,6.45
2022-12-27T01:28:54.671Z,5.40
2022-12-27T01:31:25.361Z,4.35
2022-12-27T01:33:57.912Z,7.28
2022-12-27T01:36:25.943Z,5.45
2022-12-27T01:38:52.910Z,2.33
2022-12-27T01:42:07.397Z,4.10
2022-12-27T01:44:40.079Z,6.85
2022-12-27T01:47:12.483Z,6.45
2022-12-27T01:49:50.002Z,5.00
2022-12-27T01:52:16.484Z,4.22
2022-12-27T01:54:43.244Z,4.43
2022-12-27T01:57:10.875Z,4.43
2022-12-27T01:59:38.062Z,6.85
2022-12-27T02:02:05.374Z,6.55
2022-12-27T02:04:32.419Z,7.55
2022-12-27T02:07:00.256Z,5.85
2022-12-27T02:09:52.317Z,4.97
2022-12-27T02:12:21.046Z,7.88
2022-12-27T02:14:49.229Z,5.47
2022-12-27T02:17:28.274Z,8.40
2022-12-27T02:19:57.666Z,11.85
2022-12-27T02:23:04.170Z,4.25
2022-12-27T02:25:53.759Z,4.45
2022-12-27T02:28:38.822Z,4.57
2022-12-27T02:31:11.762Z,4.97
2022-12-27T02:33:43.863Z,3.67
2022-12-27T02:36:15.449Z,4.00
2022-12-27T02:38:50.710Z,1.88
2022-12-27T02:41:36.412Z,5.25
2022-12-27T02:44:37.972Z,3.17
2022-12-27T02:47:35.819Z,5.70
2022-12-27T02:50:20.790Z,3.88
2022-12-27T02:53:09.307Z,5.05
2022-12-27T02:56:31.682Z,2.83
2022-12-27T02:59:15.407Z,2.28
2022-12-27T03:02:19.102Z,5.10
2022-12-27T03:05:03.655Z,2.17
2022-12-27T03:07:48.571Z,5.07
2022-12-27T03:11:09.819Z,2.28
2022-12-27T03:14:05.232Z,4.00
2022-12-27T03:16:41.462Z,3.75
2022-12-27T03:19:36.539Z,9.52
2022-12-27T03:22:22.652Z,2.67
2022-12-27T03:25:08.086Z,4.70
2022-12-27T03:27:36.919Z,2.38
2022-12-27T03:30:25.736Z,5.53
2022-12-27T03:33:12.887Z,6.55
2022-12-27T03:36:21.710Z,4.15
2022-12-27T03:38:59.923Z,5.05
2022-12-27T03:42:00.912Z,3.67
2022-12-27T03:44:27.567Z,3.88
2022-12-27T03:47:00.022Z,4.55
2022-12-27T03:49:34.339Z,9.32
2022-12-27T03:52:28.635Z,6.00
2022-12-27T03:54:55.895Z,1.20
2022-12-27T03:57:24.943Z,3.28
2022-12-27T03:59:51.569Z,4.57
2022-12-27T04:02:18.743Z,4.57
2022-12-27T04:04:45.529Z,4.03
2022-12-27T04:07:15.329Z,2.38
2022-12-27T04:10:01.280Z,3.30
2022-12-27T04:12:46.180Z,3.15
2022-12-27T04:15:31.471Z,2.10
2022-12-27T04:18:17.162Z,3.78
2022-12-27T04:21:01.976Z,1.50
2022-12-27T04:23:47.215Z,3.28
2022-12-27T04:26:31.991Z,3.65
2022-12-27T04:29:16.944Z,2.20
2022-12-27T04:32:01.835Z,5.45
2022-12-27T04:34:41.431Z,1.77
2022-12-27T04:37:09.556Z,2.13
2022-12-27T04:39:35.967Z,2.95
2022-12-27T04:42:20.997Z,4.93
2022-12-27T04:45:10.175Z,2.03
2022-12-27T04:47:58.721Z,7.03
2022-12-27T04:50:48.205Z,2.85
2022-12-27T04:53:36.529Z,3.90
2022-12-27T04:56:04.411Z,1.50
2022-12-27T04:58:31.196Z,3.17
2022-12-27T05:01:19.956Z,5.20
2022-12-27T05:03:49.177Z,2.13
2022-12-27T05:06:17.287Z,6.25
2022-12-27T05:09:02.622Z,3.05
2022-12-27T05:11:47.459Z,5.15
2022-12-27T05:14:15.969Z,2.95
2022-12-27T05:16:44.100Z,7.20
2022-12-27T05:19:13.419Z,4.68
2022-12-27T05:22:01.946Z,2.70
2022-12-27T05:24:48.394Z,3.63
2022-12-27T05:27:15.645Z,3.17
2022-12-27T05:29:42.045Z,5.40
2022-12-27T05:32:13.014Z,4.25
2022-12-27T05:34:40.275Z,4.53
2022-12-27T05:37:07.221Z,2.20
2022-12-27T05:39:33.635Z,4.45
2022-12-27T05:42:00.128Z,1.67
2022-12-27T05:44:27.041Z,3.22
2022-12-27T05:46:54.620Z,3.95
2022-12-27T05:49:21.746Z,2.92
2022-12-27T05:51:48.961Z,4.63
2022-12-27T05:54:15.601Z,5.30
2022-12-27T05:56:42.034Z,2.00
2022-12-27T05:59:08.654Z,3.35
2022-12-27T06:01:35.344Z,3.33
2022-12-27T06:04:01.919Z,4.00
2022-12-27T06:06:28.933Z,3.38
2022-12-27T06:08:55.440Z,4.03
2022-12-27T06:11:22.004Z,4.45
2022-12-27T06:13:52.845Z,4.40
2022-12-27T06:16:20.696Z,5.88
2022-12-27T06:18:47.260Z,3.35
2022-12-27T06:21:19.124Z,4.53
2022-12-27T06:23:46.354Z,3.85
2022-12-27T06:26:21.918Z,2.72
2022-12-27T06:28:49.960Z,3.28
2022-12-27T06:31:18.189Z,3.53
2022-12-27T06:33:45.060Z,4.28
2022-12-27T06:36:14.259Z,6.50
2022-12-27T06:38:41.463Z,2.92
2022-12-27T06:41:13.335Z,4.97
2022-12-27T06:43:40.905Z,4.63
2022-12-27T06:46:16.721Z,4.47
2022-12-27T06:48:46.529Z,3.72
2022-12-27T06:51:15.199Z,4.15
2022-12-27T06:53:45.421Z,2.20
2022-12-27T06:56:16.540Z,4.45
2022-12-27T06:58:43.246Z,6.70
2022-12-27T07:01:11.611Z,3.15
2022-12-27T07:03:38.839Z,4.45
2022-12-27T07:06:07.021Z,3.65
2022-12-27T07:08:35.647Z,7.90
2022-12-27T07:11:08.196Z,5.55
2022-12-27T07:13:40.445Z,5.30
2022-12-27T07:16:08.830Z,7.40
2022-12-27T07:18:36.013Z,7.07
2022-12-27T07:21:07.890Z,8.82
2022-12-27T07:23:34.685Z,6.90
2022-12-27T07:26:03.430Z,6.88
2022-12-27T07:28:30.435Z,8.65
2022-12-27T07:30:56.847Z,8.18
2022-12-27T07:33:23.323Z,5.55
2022-12-27T07:35:49.758Z,5.80
2022-12-27T07:38:16.164Z,4.00
2022-12-27T07:40:42.551Z,3.90
2022-12-27T07:43:08.975Z,2.30
2022-12-27T07:45:35.436Z,7.57
2022-12-27T07:48:01.949Z,5.20
2022-12-27T07:50:28.473Z,3.80
2022-12-27T07:52:54.909Z,5.82
2022-12-27T07:55:21.293Z,8.32
2022-12-27T07:57:49.369Z,8.35
2022-12-27T08:00:16.213Z,10.77
2022-12-27T08:02:43.477Z,4.88
2022-12-27T08:05:11.840Z,4.75
2022-12-27T08:07:39.263Z,3.97
2022-12-27T08:10:07.968Z,4.55
2022-12-27T08:12:34.867Z,5.55
2022-12-27T08:15:01.263Z,3.20
2022-12-27T08:17:28.394Z,2.03
2022-12-27T08:19:55.528Z,3.00
2022-12-27T08:22:23.879Z,3.10
2022-12-27T08:24:51.107Z,6.65
2022-12-27T08:27:22.598Z,5.30
2022-12-27T08:32:16.077Z,4.07
2022-12-27T08:34:42.520Z,4.05
2022-12-27T08:37:09.132Z,3.70
2022-12-27T08:39:35.584Z,5.03
2022-12-27T08:42:02.133Z,3.95
2022-12-27T08:44:28.570Z,4.97
2022-12-27T08:46:55.061Z,10.93
2022-12-27T08:49:21.539Z,7.25
2022-12-27T08:51:48.011Z,6.18
2022-12-27T08:54:14.535Z,5.80
2022-12-27T08:56:40.937Z,4.50
2022-12-27T08:59:07.394Z,4.70
2022-12-27T09:01:33.995Z,2.03
2022-12-27T09:04:00.513Z,2.08
2022-12-27T09:06:27.719Z,4.90
2022-12-27T09:08:55.859Z,7.18
2022-12-27T09:11:25.692Z,2.22
2022-12-27T09:13:52.634Z,6.50
2022-12-27T09:16:22.223Z,6.80
2022-12-27T09:18:51.404Z,7.05
2022-12-27T09:21:19.530Z,2.70
2022-12-27T09:23:46.728Z,6.00
2022-12-27T09:26:18.601Z,2.67
2022-12-27T09:28:45.254Z,2.15
2022-12-27T09:31:12.971Z,3.22
2022-12-27T09:33:40.297Z,4.20
2022-12-27T09:36:10.982Z,2.13
2022-12-27T09:38:38.127Z,3.47
2022-12-27T09:41:16.617Z,5.18
2022-12-27T09:44:02.317Z,7.40
2022-12-27T09:46:40.477Z,2.75
2022-12-27T09:49:11.327Z,3.17
2022-12-27T09:51:54.446Z,25.83
2022-12-27T09:54:27.694Z,3.15
2022-12-27T09:57:18.917Z,10.95
2022-12-27T09:59:46.952Z,4.55
2022-12-27T10:02:21.197Z,3.75
2022-12-27T10:05:18.710Z,7.38
2022-12-27T10:07:57.468Z,5.07
2022-12-27T10:10:42.649Z,2.05
2022-12-27T10:13:17.996Z,4.38
2022-12-27T10:16:02.874Z,2.95
2022-12-27T10:18:44.232Z,2.60
2022-12-27T10:21:21.467Z,4.65
2022-12-27T10:24:20.952Z,2.95
2022-12-27T10:26:47.461Z,4.05
2022-12-27T10:29:22.954Z,3.40
2022-12-27T10:31:49.977Z,3.28
2022-12-27T10:34:24.100Z,2.50
2022-12-27T10:36:52.225Z,3.28
2022-12-27T10:39:21.293Z,5.40
2022-12-27T10:42:10.035Z,3.30
2022-12-27T10:44:36.447Z,3.22
2022-12-27T10:47:03.492Z,3.38
2022-12-27T10:49:32.416Z,2.78
2022-12-27T10:52:23.521Z,1.63
2022-12-27T10:54:55.795Z,2.50
2022-12-27T10:57:33.820Z,3.40
2022-12-27T11:00:20.407Z,5.22
2022-12-27T11:02:55.923Z,1.65
2022-12-27T11:05:30.757Z,3.10
2022-12-27T11:07:57.869Z,7.88
2022-12-27T11:10:31.336Z,3.28
2022-12-27T11:13:06.020Z,3.22
2022-12-27T11:15:36.478Z,2.55
2022-12-27T11:18:10.769Z,3.80
2022-12-27T11:21:03.559Z,3.47
2022-12-27T11:23:36.267Z,2.13
2022-12-27T11:26:06.391Z,2.85
2022-12-27T11:28:41.857Z,3.97
2022-12-27T11:31:11.493Z,2.53
2022-12-27T11:33:48.563Z,3.55
2022-12-27T11:36:25.548Z,3.80
2022-12-27T11:38:52.083Z,2.55
2022-12-27T11:41:43.140Z,6.80
2022-12-27T11:44:18.442Z,4.18
2022-12-27T11:46:59.286Z,3.30
2022-12-27T11:49:35.759Z,3.08
2022-12-27T11:52:14.254Z,2.20
2022-12-27T11:54:52.887Z,5.00
2022-12-27T11:57:38.452Z,3.15
2022-12-27T12:00:24.542Z,4.10
2022-12-27T12:03:32.719Z,1.88
2022-12-27T12:06:23.323Z,2.50
2022-12-27T12:09:15.645Z,1.48
2022-12-27T12:12:04.812Z,5.00
2022-12-27T12:14:55.559Z,4.07
2022-12-27T12:17:35.723Z,4.40
2022-12-27T12:20:28.544Z,3.05
2022-12-27T12:23:21.949Z,2.97
2022-12-27T12:26:10.829Z,2.15
2022-12-27T12:28:59.630Z,2.72
2022-12-27T12:31:54.164Z,1.90
2022-12-27T12:34:32.802Z,1.60
2022-12-27T12:37:21.085Z,1.75
2022-12-27T12:40:02.686Z,1.77
2022-12-27T12:42:43.730Z,5.47
2022-12-27T12:45:27.715Z,4.40
2022-12-27T12:48:30.578Z,5.20
2022-12-27T12:51:31.577Z,1.50
2022-12-27T12:54:18.252Z,2.25
2022-12-27T12:57:25.294Z,2.63
2022-12-27T13:00:08.871Z,4.55
2022-12-27T13:03:07.024Z,3.95
2022-12-27T13:06:04.230Z,5.38
2022-12-27T13:08:36.704Z,3.65
2022-12-27T13:11:37.273Z,4.20
2022-12-27T13:14:24.388Z,3.88
2022-12-27T13:17:06.658Z,7.07
2022-12-27T13:19:57.734Z,4.85
2022-12-27T13:22:53.717Z,3.03
2022-12-27T13:25:35.208Z,1.75
2022-12-27T13:31:04.631Z,4.57
2022-12-27T13:33:51.525Z,5.18
2022-12-27T13:36:34.168Z,4.15
2022-12-27T13:39:35.703Z,7.97
2022-12-27T13:42:24.288Z,5.47
2022-12-27T13:45:21.761Z,5.47
2022-12-27T13:48:11.098Z,2.25
2022-12-27T13:50:53.762Z,2.13
2022-12-27T13:53:50.155Z,3.53
2022-12-27T13:57:01.111Z,5.10
2022-12-27T13:59:30.325Z,2.25
2022-12-27T14:02:02.776Z,3.17
2022-12-27T14:04:59.705Z,5.70
2022-12-27T14:08:14.902Z,4.05
2022-12-27T14:10:48.532Z,6.72
2022-12-27T14:13:26.907Z,5.47
2022-12-27T14:16:15.208Z,4.78
2022-12-27T14:19:10.140Z,3.08
2022-12-27T14:21:55.370Z,6.13
2022-12-27T14:24:43.812Z,3.47
2022-12-27T14:27:15.931Z,2.08
2022-12-27T14:30:00.727Z,2.58
2022-12-27T14:32:45.862Z,7.10
2022-12-27T14:36:03.461Z,11.90
2022-12-27T14:38:38.687Z,10.10
2022-12-27T14:41:40.682Z,6.65
2022-12-27T14:44:39.875Z,7.22
2022-12-27T14:47:30.658Z,10.23
2022-12-27T14:50:15.004Z,4.78
2022-12-27T14:53:26.519Z,7.63
2022-12-27T14:56:09.533Z,3.97
2022-12-27T14:58:52.776Z,7.47
2022-12-27T15:01:41.191Z,6.30
2022-12-27T15:04:36.699Z,5.72
2022-12-27T15:07:20.356Z,5.47
2022-12-27T15:09:55.331Z,5.30
2022-12-27T15:12:43.449Z,6.05
2022-12-27T15:15:17.001Z,6.80
2022-12-27T15:18:09.167Z,12.15
2022-12-27T15:21:06.688Z,6.75
2022-12-27T15:23:48.310Z,10.65
2022-12-27T15:26:27.465Z,16.25
2022-12-27T15:29:27.413Z,12.68
2022-12-27T15:32:08.509Z,15.98
2022-12-27T15:35:02.764Z,19.13
2022-12-27T15:37:47.438Z,16.13
2022-12-27T15:40:32.137Z,25.25
2022-12-27T15:43:04.517Z,21.77
2022-12-27T15:45:54.705Z,22.13
2022-12-27T15:48:35.472Z,16.38
2022-12-27T15:51:22.898Z,17.92
2022-12-27T15:54:09.282Z,19.25
2022-12-27T15:57:13.408Z,18.63
2022-12-27T15:59:45.767Z,18.08
2022-12-27T16:02:34.883Z,15.45
2022-12-27T16:05:20.331Z,18.55
2022-12-27T16:07:59.665Z,13.73
2022-12-27T16:10:35.450Z,14.02
2022-12-27T16:13:04.894Z,14.20
2022-12-27T16:15:34.465Z,12.65
2022-12-27T16:18:03.140Z,18.15
2022-12-27T16:20:31.463Z,16.95
2022-12-27T16:23:06.109Z,13.30
2022-12-27T16:25:40.638Z,19.00
2022-12-27T16:28:19.621Z,19.10
2022-12-27T16:30:51.629Z,18.70
2022-12-27T16:33:27.241Z,12.82
2022-12-27T16:36:12.184Z,7.78
2022-12-27T16:38:46.148Z,8.73
2022-12-27T16:41:32.024Z,15.07
2022-12-27T16:44:01.477Z,6.70
2022-12-27T16:46:27.924Z,6.45
2022-12-27T16:49:09.323Z,5.80
2022-12-27T16:52:00.482Z,5.70
2022-12-27T16:54:45.647Z,8.75
2022-12-27T16:57:21.673Z,11.77
2022-12-27T17:00:19.127Z,11.65
2022-12-27T17:02:46.912Z,14.25
2022-12-27T17:05:16.433Z,10.20
2022-12-27T17:07:58.016Z,10.10
2022-12-27T17:12:59.415Z,11.65
2022-12-27T17:15:27.417Z,9.52
2022-12-27T17:17:59.308Z,10.95
2022-12-27T17:20:25.958Z,12.40
2022-12-27T17:22:57.491Z,13.98
2022-12-27T17:25:34.384Z,12.93
2022-12-27T17:28:25.585Z,12.23
2022-12-27T17:31:05.955Z,8.40
2022-12-27T17:33:56.172Z,8.13
2022-12-27T17:36:34.552Z,7.40
2022-12-27T17:39:24.689Z,11.63
2022-12-27T17:42:30.934Z,12.82
2022-12-27T17:45:03.689Z,11.00
2022-12-27T17:47:48.905Z,7.75
2022-12-27T17:50:20.777Z,10.25
2022-12-27T17:53:27.818Z,10.18
2022-12-27T17:56:33.037Z,11.25
2022-12-27T17:59:13.038Z,10.20
2022-12-27T18:01:48.907Z,8.90
2022-12-27T18:04:26.213Z,8.35
2022-12-27T18:07:01.818Z,9.27
2022-12-27T18:09:49.292Z,15.43
2022-12-27T18:12:21.248Z,11.38
2022-12-27T18:14:59.889Z,10.90
2022-12-27T18:17:32.751Z,11.27
2022-12-27T18:19:59.186Z,10.48
2022-12-27T18:22:26.760Z,12.02
2022-12-27T18:24:53.177Z,13.73
2022-12-27T18:27:23.753Z,18.50
2022-12-27T18:29:50.472Z,15.90
2022-12-27T18:32:19.069Z,12.05
2022-12-27T18:35:03.885Z,12.38
2022-12-27T18:37:30.909Z,15.98
2022-12-27T18:40:04.649Z,13.35
2022-12-27T18:42:36.412Z,12.27
2022-12-27T18:45:33.572Z,13.52
2022-12-27T18:48:01.885Z,13.23
2022-12-27T18:50:31.004Z,15.25
2022-12-27T18:53:22.565Z,12.40
2022-12-27T18:55:58.683Z,17.15
2022-12-27T18:58:25.727Z,17.90
2022-12-27T19:01:00.325Z,24.00
2022-12-27T19:03:28.005Z,19.50
2022-12-27T19:06:08.990Z,25.58
2022-12-27T19:08:45.278Z,29.33
2022-12-27T19:11:21.201Z,30.98
2022-12-27T19:13:50.111Z,23.90
2022-12-27T19:16:24.418Z,23.45
2022-12-27T19:18:56.915Z,27.98
2022-12-27T19:21:34.465Z,27.88
2022-12-27T19:24:19.672Z,22.50
2022-12-27T19:26:46.095Z,22.77
2022-12-27T19:29:18.935Z,20.10
2022-12-27T19:31:54.162Z,16.83
2022-12-27T19:34:21.509Z,15.25
2022-12-27T19:36:49.041Z,16.95
2022-12-27T19:39:26.121Z,16.70
2022-12-27T19:41:53.775Z,11.23
2022-12-27T19:44:27.877Z,12.80
2022-12-27T19:46:54.313Z,19.95
2022-12-27T19:49:41.579Z,11.20
2022-12-27T19:52:16.275Z,13.98
2022-12-27T19:54:42.791Z,15.68
2022-12-27T19:57:12.304Z,13.45
2022-12-27T19:59:38.889Z,9.88
2022-12-27T20:02:05.750Z,14.60
2022-12-27T20:04:32.871Z,11.50
2022-12-27T20:07:00.508Z,9.43
2022-12-27T20:09:27.579Z,12.73
2022-12-27T20:11:54.348Z,10.82
2022-12-27T20:14:20.808Z,13.40
2022-12-27T20:16:47.403Z,10.23
2022-12-27T20:19:16.284Z,11.68
2022-12-27T20:21:42.814Z,14.43
2022-12-27T20:24:12.962Z,12.85
2022-12-27T20:26:40.480Z,18.35
2022-12-27T20:29:07.443Z,15.57
2022-12-27T20:31:36.518Z,15.23
2022-12-27T20:34:10.932Z,18.23
2022-12-27T20:36:37.443Z,16.70
2022-12-27T20:39:03.939Z,13.57
2022-12-27T20:41:30.408Z,15.60
2022-12-27T20:43:58.014Z,17.13
2022-12-27T20:46:25.054Z,8.65
2022-12-27T20:48:53.719Z,8.98
2022-12-27T20:51:23.469Z,14.95
2022-12-27T20:53:55.828Z,10.60
2022-12-27T20:56:22.437Z,12.82
2022-12-27T20:58:48.865Z,9.35
2022-12-27T21:01:18.211Z,9.30
2022-12-27T21:03:44.999Z,14.95
2022-12-27T21:06:17.393Z,17.55
2022-12-27T21:08:49.169Z,14.20
2022-12-27T21:11:27.414Z,13.02
2022-12-27T21:13:54.473Z,12.50
2022-12-27T21:16:26.157Z,13.73
2022-12-27T21:18:53.527Z,27.48
2022-12-27T21:21:27.997Z,16.95
2022-12-27T21:23:57.042Z,18.52
2022-12-27T21:26:26.230Z,18.27
2022-12-27T21:28:53.337Z,18.30
2022-12-27T21:31:20.182Z,18.63
2022-12-27T21:33:48.465Z,16.55
2022-12-27T21:36:17.699Z,20.25
2022-12-27T21:38:44.711Z,23.40
2022-12-27T21:41:14.212Z,22.65
2022-12-27T21:43:41.606Z,24.00
2022-12-27T21:46:11.707Z,20.85
2022-12-27T21:48:38.272Z,25.83
2022-12-27T21:51:10.223Z,24.77
2022-12-27T21:53:36.714Z,30.80
2022-12-27T21:56:03.896Z,38.15
2022-12-27T21:58:31.803Z,45.88
2022-12-27T22:01:30.596Z,31.50
2022-12-27T22:04:16.853Z,29.15
2022-12-27T22:06:46.810Z,22.73
2022-12-27T22:09:14.255Z,27.00
2022-12-27T22:11:40.736Z,21.60
2022-12-27T22:14:07.358Z,22.75
2022-12-27T22:16:36.256Z,24.20
2022-12-27T22:19:05.968Z,22.63
2022-12-27T22:21:34.148Z,24.67
2022-12-27T22:24:02.230Z,23.88
2022-12-27T22:26:31.722Z,24.50
2022-12-27T22:28:58.483Z,23.02
2022-12-27T22:31:30.231Z,30.08
2022-12-27T22:33:57.127Z,24.73
2022-12-27T22:36:25.969Z,22.17
2022-12-27T22:38:55.033Z,25.65
2022-12-27T22:41:24.658Z,24.33
2022-12-27T22:43:54.053Z,21.48
2022-12-27T22:46:21.358Z,21.48
2022-12-27T22:48:52.336Z,20.58
2022-12-27T22:51:22.319Z,28.20
2022-12-27T22:53:49.563Z,25.13
2022-12-27T22:56:21.723Z,24.67
2022-12-27T22:58:48.484Z,24.52
2022-12-27T23:01:17.873Z,18.80
2022-12-27T23:03:44.798Z,22.73
2022-12-27T23:06:12.303Z,22.77
2022-12-27T23:08:42.696Z,23.20
2022-12-27T23:11:16.841Z,26.98
2022-12-27T23:13:43.790Z,22.25
2022-12-27T23:16:10.591Z,26.75
2022-12-27T23:18:37.447Z,21.77
2022-12-27T23:21:20.868Z,21.50
2022-12-27T23:23:51.191Z,19.40
2022-12-27T23:26:20.156Z,19.50
2022-12-27T23:28:47.588Z,14.68
2022-12-27T23:31:15.260Z,15.75
2022-12-27T23:33:43.385Z,14.13
2022-12-27T23:36:11.299Z,15.20
2022-12-27T23:38:37.971Z,15.75
2022-12-27T23:41:06.677Z,12.77
2022-12-27T23:43:53.230Z,12.13
2022-12-27T23:46:23.807Z,12.50
2022-12-27T23:48:51.332Z,13.10
2022-12-27T23:51:18.555Z,13.88
2022-12-27T23:53:45.206Z,12.85
2022-12-27T23:56:20.084Z,12.35
2022-12-27T23:58:47.050Z,11.73
